createdAt,value
2019-05-02T00:01:20.894Z,54.83
2019-05-02T00:03:54.373Z,51.87
2019-05-02T00:06:25.036Z,54.27
2019-05-02T00:08:55.278Z,47.63
2019-05-02T00:11:33.867Z,60.93
2019-05-02T00:14:08.544Z,52.20
2019-05-02T00:16:49.320Z,55.03
2019-05-02T00:19:18.872Z,51.13
2019-05-02T00:21:53.022Z,49.90
2019-05-02T00:24:23.453Z,50.10
2019-05-02T00:27:01.342Z,50.63
2019-05-02T00:29:29.023Z,52.40
2019-05-02T00:32:00.331Z,51.10
2019-05-02T00:34:33.642Z,53.03
2019-05-02T00:37:03.251Z,57.67
2019-05-02T00:39:39.164Z,54.93
2019-05-02T00:42:17.577Z,55.20
2019-05-02T00:44:50.219Z,55.43
2019-05-02T00:47:42.322Z,57.03
2019-05-02T00:50:14.105Z,55.10
2019-05-02T00:52:50.655Z,52.13
2019-05-02T00:55:23.439Z,55.57
2019-05-02T00:57:55.642Z,53.23
2019-05-02T01:00:34.781Z,57.87
2019-05-02T01:03:10.968Z,65.80
2019-05-02T01:05:40.299Z,54.97
2019-05-02T01:08:12.308Z,57.33
2019-05-02T01:10:43.849Z,54.33
2019-05-02T01:13:21.445Z,60.93
2019-05-02T01:15:54.108Z,59.70
2019-05-02T01:18:26.138Z,59.57
2019-05-02T01:20:58.164Z,59.70
2019-05-02T01:23:32.402Z,60.70
2019-05-02T01:26:02.765Z,58.50
2019-05-02T01:28:54.390Z,59.03
2019-05-02T01:31:37.716Z,59.83
2019-05-02T01:34:17.879Z,59.90
2019-05-02T01:37:30.860Z,58.83
2019-05-02T01:40:02.791Z,56.77
2019-05-02T01:42:39.984Z,61.73
2019-05-02T01:45:16.255Z,60.83
2019-05-02T01:47:46.495Z,62.47
2019-05-02T01:50:21.735Z,68.73
2019-05-02T01:52:53.742Z,62.60
2019-05-02T01:55:24.219Z,72.83
2019-05-02T01:57:53.860Z,68.60
2019-05-02T02:00:27.807Z,69.47
2019-05-02T02:03:08.833Z,70.60
2019-05-02T02:05:32.338Z,65.03
2019-05-02T02:08:00.965Z,67.43
2019-05-02T02:10:31.783Z,65.63
2019-05-02T02:13:06.154Z,73.00
2019-05-02T02:15:38.504Z,71.83
2019-05-02T02:18:12.225Z,66.50
2019-05-02T02:20:59.196Z,70.40
2019-05-02T02:23:44.948Z,70.53
2019-05-02T02:26:19.734Z,71.07
2019-05-02T02:28:50.077Z,75.50
2019-05-02T02:31:26.254Z,70.27
2019-05-02T02:33:56.891Z,76.03
2019-05-02T02:36:33.966Z,76.37
2019-05-02T02:38:59.097Z,67.47
2019-05-02T02:41:31.516Z,78.37
2019-05-02T02:44:05.662Z,69.80
2019-05-02T02:46:44.698Z,77.13
2019-05-02T02:49:21.783Z,76.97
2019-05-02T02:51:48.891Z,70.10
2019-05-02T02:54:17.803Z,76.53
2019-05-02T02:57:00.275Z,71.10
2019-05-02T02:59:30.840Z,74.50
2019-05-02T03:02:10.011Z,80.63
2019-05-02T03:04:36.750Z,74.57
2019-05-02T03:07:08.058Z,70.63
2019-05-02T03:12:36.280Z,71.50
2019-05-02T03:15:05.076Z,72.33
2019-05-02T03:17:36.838Z,68.93
2019-05-02T03:20:08.380Z,68.97
2019-05-02T03:22:41.851Z,68.93
2019-05-02T03:25:08.423Z,64.97
2019-05-02T03:28:21.009Z,73.67
2019-05-02T03:30:50.405Z,67.43
2019-05-02T03:33:19.943Z,72.23
2019-05-02T03:35:50.552Z,69.77
2019-05-02T03:38:33.038Z,64.77
2019-05-02T03:41:02.696Z,71.97
2019-05-02T03:43:40.074Z,72.90
2019-05-02T03:46:13.606Z,74.40
2019-05-02T03:48:42.815Z,68.83
2019-05-02T03:51:21.661Z,66.10
2019-05-02T03:53:50.898Z,68.43
2019-05-02T03:56:20.786Z,72.23
2019-05-02T03:58:57.937Z,70.73
2019-05-02T04:01:34.547Z,73.13
2019-05-02T04:04:05.389Z,66.17
2019-05-02T04:06:39.780Z,62.50
2019-05-02T04:09:11.786Z,68.17
2019-05-02T04:11:45.090Z,75.80
2019-05-02T04:14:36.593Z,73.07
2019-05-02T04:16:55.142Z,73.60
2019-05-02T04:19:28.601Z,74.07
2019-05-02T04:22:08.247Z,76.73
2019-05-02T04:24:37.128Z,75.77
2019-05-02T04:27:17.418Z,81.30
2019-05-02T04:29:48.019Z,73.90
2019-05-02T04:32:19.303Z,71.43
2019-05-02T04:38:42.768Z,75.73
2019-05-02T04:43:57.717Z,79.23
2019-05-02T04:46:28.203Z,79.50
2019-05-02T04:48:58.902Z,76.53
2019-05-02T04:51:32.034Z,72.30
2019-05-02T04:54:21.823Z,75.10
2019-05-02T04:56:52.481Z,79.00
2019-05-02T04:59:22.968Z,80.93
2019-05-02T05:01:58.551Z,78.03
2019-05-02T05:04:33.305Z,82.00
2019-05-02T05:07:05.011Z,81.60
2019-05-02T05:09:47.923Z,85.60
2019-05-02T05:12:13.608Z,79.13
2019-05-02T05:14:43.470Z,86.57
2019-05-02T05:17:14.062Z,86.10
2019-05-02T05:19:45.477Z,89.97
2019-05-02T05:22:14.902Z,90.70
2019-05-02T05:25:04.604Z,88.40
2019-05-02T05:28:20.021Z,83.63
2019-05-02T05:30:52.172Z,84.80
2019-05-02T05:35:03.138Z,83.40
2019-05-02T05:35:59.631Z,92.50
2019-05-02T05:38:36.005Z,84.90
2019-05-02T05:41:13.978Z,87.83
2019-05-02T05:43:44.815Z,90.60
2019-05-02T05:46:19.494Z,86.73
2019-05-02T05:48:50.377Z,99.10
2019-05-02T05:51:22.328Z,90.23
2019-05-02T05:53:56.353Z,90.63
2019-05-02T05:56:24.908Z,94.77
2019-05-02T05:59:02.342Z,98.00
2019-05-02T06:01:35.744Z,93.50
2019-05-02T06:04:13.861Z,107.20
2019-05-02T06:06:47.999Z,108.97
2019-05-02T06:09:17.703Z,104.03
2019-05-02T06:11:57.752Z,104.93
2019-05-02T06:14:39.581Z,109.20
2019-05-02T06:17:30.457Z,107.90
2019-05-02T06:20:05.442Z,108.27
2019-05-02T06:22:42.601Z,117.65
2019-05-02T06:25:33.709Z,107.63
2019-05-02T06:28:05.268Z,101.53
2019-05-02T06:30:38.900Z,105.80
2019-05-02T06:33:09.097Z,105.87
2019-05-02T06:35:43.394Z,110.87
2019-05-02T06:38:15.653Z,107.37
2019-05-02T06:40:49.976Z,97.30
2019-05-02T06:43:25.620Z,106.37
2019-05-02T06:46:14.724Z,101.42
2019-05-02T06:48:34.645Z,86.00
2019-05-02T06:51:04.904Z,92.13
2019-05-02T06:53:36.478Z,100.38
2019-05-02T06:56:16.737Z,93.30
2019-05-02T06:58:50.160Z,93.45
2019-05-02T07:01:31.726Z,89.43
2019-05-02T07:04:04.254Z,80.27
2019-05-02T07:06:57.634Z,90.60
2019-05-02T07:09:15.996Z,78.97
2019-05-02T07:11:56.892Z,82.53
2019-05-02T07:14:22.785Z,73.63
2019-05-02T07:16:56.489Z,75.03
2019-05-02T07:19:34.687Z,74.03
2019-05-02T07:22:11.168Z,75.10
2019-05-02T07:24:40.669Z,77.40
2019-05-02T07:27:22.693Z,82.60
2019-05-02T07:29:57.815Z,77.63
2019-05-02T07:32:40.895Z,71.63
2019-05-02T07:35:12.035Z,76.93
2019-05-02T07:37:48.887Z,72.77
2019-05-02T07:40:39.173Z,64.03
2019-05-02T07:42:58.884Z,69.50
2019-05-02T07:45:40.214Z,69.77
2019-05-02T07:48:12.457Z,66.70
2019-05-02T07:50:46.580Z,65.80
2019-05-02T07:53:17.048Z,63.93
2019-05-02T07:55:55.182Z,66.37
2019-05-02T07:58:26.762Z,67.90
2019-05-02T08:01:15.325Z,63.93
2019-05-02T08:04:04.649Z,68.60
2019-05-02T08:06:35.684Z,65.80
2019-05-02T08:09:09.427Z,63.57
2019-05-02T08:11:38.963Z,59.70
2019-05-02T08:14:10.208Z,67.20
2019-05-02T08:16:41.757Z,64.43
2019-05-02T08:19:27.386Z,61.30
2019-05-02T08:21:57.962Z,62.57
2019-05-02T08:24:33.183Z,62.03
2019-05-02T08:27:06.239Z,61.27
2019-05-02T08:29:39.432Z,56.27
2019-05-02T08:32:14.570Z,59.13
2019-05-02T08:34:46.253Z,60.70
2019-05-02T08:37:25.320Z,56.23
2019-05-02T08:40:05.258Z,53.57
2019-05-02T08:42:32.693Z,55.10
2019-05-02T08:45:04.551Z,54.53
2019-05-02T08:47:38.661Z,55.00
2019-05-02T08:50:08.732Z,52.57
2019-05-02T08:52:42.290Z,51.03
2019-05-02T08:55:11.058Z,49.83
2019-05-02T08:57:55.271Z,45.90
2019-05-02T09:00:25.311Z,49.73
2019-05-02T09:02:57.156Z,49.27
2019-05-02T09:05:25.353Z,45.73
2019-05-02T09:08:14.056Z,40.20
2019-05-02T09:10:42.171Z,44.47
2019-05-02T09:13:10.198Z,48.20
2019-05-02T09:15:54.237Z,45.40
2019-05-02T09:18:38.596Z,48.23
2019-05-02T09:21:07.233Z,49.53
2019-05-02T09:23:37.212Z,51.43
2019-05-02T09:26:11.814Z,50.33
2019-05-02T09:28:42.380Z,60.43
2019-05-02T09:31:19.403Z,55.37
2019-05-02T09:33:55.498Z,58.03
2019-05-02T09:36:32.171Z,52.00
2019-05-02T09:38:59.707Z,59.87
2019-05-02T09:41:32.509Z,50.30
2019-05-02T09:44:02.817Z,46.63
2019-05-02T09:46:33.480Z,48.60
2019-05-02T09:49:16.565Z,51.07
2019-05-02T09:51:45.601Z,47.07
2019-05-02T09:54:17.771Z,54.07
2019-05-02T09:56:49.335Z,57.63
2019-05-02T09:59:29.214Z,60.20
2019-05-02T10:01:52.698Z,56.77
2019-05-02T10:04:23.890Z,58.47
2019-05-02T10:06:55.846Z,60.33
2019-05-02T10:09:29.280Z,54.90
2019-05-02T10:11:58.862Z,51.77
2019-05-02T10:14:34.973Z,59.80
2019-05-02T10:17:07.509Z,56.13
2019-05-02T10:19:48.768Z,56.60
2019-05-02T10:22:15.647Z,53.57
2019-05-02T10:24:52.021Z,63.80
2019-05-02T10:27:26.111Z,53.43
2019-05-02T10:29:57.277Z,55.97
2019-05-02T10:32:29.285Z,52.87
2019-05-02T10:35:14.158Z,54.63
2019-05-02T10:37:48.191Z,50.03
2019-05-02T10:40:22.384Z,52.97
2019-05-02T10:42:54.872Z,52.37
2019-05-02T10:45:25.456Z,52.13
2019-05-02T10:47:59.426Z,53.55
2019-05-02T10:50:32.879Z,51.50
2019-05-02T10:53:11.978Z,47.60
2019-05-02T10:55:52.217Z,50.53
2019-05-02T10:58:31.967Z,46.27
2019-05-02T11:01:14.195Z,50.60
2019-05-02T11:03:47.728Z,44.50
2019-05-02T11:06:18.591Z,48.77
2019-05-02T11:08:52.490Z,46.00
2019-05-02T11:11:23.507Z,48.33
2019-05-02T11:14:16.607Z,45.63
2019-05-02T11:16:56.798Z,47.93
2019-05-02T11:19:36.896Z,47.80
2019-05-02T11:22:12.126Z,45.40
2019-05-02T11:24:52.187Z,44.07
2019-05-02T11:27:23.823Z,43.93
2019-05-02T11:29:53.369Z,43.57
2019-05-02T11:32:38.271Z,43.90
2019-05-02T11:35:13.031Z,40.97
2019-05-02T11:37:42.318Z,46.57
2019-05-02T11:40:14.491Z,45.10
2019-05-02T11:42:57.129Z,46.77
2019-05-02T11:45:29.142Z,43.97
2019-05-02T11:48:09.235Z,44.57
2019-05-02T11:50:36.458Z,45.65
2019-05-02T11:53:22.272Z,38.80
2019-05-02T11:55:46.470Z,41.43
2019-05-02T11:58:22.833Z,40.43
2019-05-02T12:00:53.278Z,35.37
2019-05-02T12:03:36.904Z,43.05
2019-05-02T12:06:06.817Z,40.17
2019-05-02T12:08:39.363Z,37.13
2019-05-02T12:11:08.365Z,37.57
2019-05-02T12:13:42.746Z,34.03
2019-05-02T12:16:13.704Z,38.20
2019-05-02T12:18:42.846Z,37.73
2019-05-02T12:21:17.758Z,38.30
2019-05-02T12:23:46.877Z,38.13
2019-05-02T12:26:16.214Z,33.80
2019-05-02T12:28:45.578Z,34.10
2019-05-02T12:31:23.670Z,34.87
2019-05-02T12:34:00.120Z,33.40
2019-05-02T12:36:33.306Z,38.10
2019-05-02T12:39:03.709Z,33.47
2019-05-02T12:41:34.225Z,30.43
2019-05-02T12:44:08.150Z,34.97
2019-05-02T12:46:38.168Z,32.47
2019-05-02T12:49:07.308Z,33.45
2019-05-02T12:51:39.599Z,31.33
2019-05-02T12:54:14.695Z,30.63
2019-05-02T12:56:43.634Z,29.77
2019-05-02T12:59:17.163Z,35.03
2019-05-02T13:01:47.769Z,32.33
2019-05-02T13:04:22.979Z,27.33
2019-05-02T13:06:53.497Z,27.23
2019-05-02T13:09:23.448Z,29.63
2019-05-02T13:12:03.951Z,27.50
2019-05-02T13:14:37.348Z,24.03
2019-05-02T13:17:08.526Z,23.40
2019-05-02T13:19:41.633Z,21.63
2019-05-02T13:22:21.809Z,21.97
2019-05-02T13:24:56.321Z,21.40
2019-05-02T13:27:32.137Z,21.23
2019-05-02T13:30:03.221Z,17.90
2019-05-02T13:32:36.832Z,16.10
2019-05-02T13:35:22.278Z,16.20
2019-05-02T13:37:56.732Z,14.10
2019-05-02T13:40:48.092Z,17.77
2019-05-02T13:43:12.569Z,15.93
2019-05-02T13:45:48.859Z,16.23
2019-05-02T13:48:19.410Z,13.10
2019-05-02T13:50:51.732Z,12.67
2019-05-02T13:53:25.033Z,12.40
2019-05-02T13:56:15.494Z,14.93
2019-05-02T13:58:45.649Z,14.97
2019-05-02T14:01:18.371Z,14.73
2019-05-02T14:03:47.918Z,15.93
2019-05-02T14:06:21.978Z,15.73
2019-05-02T14:08:55.878Z,15.13
2019-05-02T14:11:44.320Z,14.87
2019-05-02T14:14:25.843Z,15.13
2019-05-02T14:17:02.849Z,16.90
2019-05-02T14:19:33.976Z,17.40
2019-05-02T14:22:04.756Z,18.90
2019-05-02T14:24:37.538Z,17.73
2019-05-02T14:27:12.801Z,19.13
2019-05-02T14:29:42.853Z,19.92
2019-05-02T14:32:21.471Z,18.10
2019-05-02T14:35:18.485Z,19.67
2019-05-02T14:37:47.935Z,21.13
2019-05-02T14:40:23.988Z,21.07
2019-05-02T14:43:05.246Z,23.45
2019-05-02T14:45:50.917Z,22.90
2019-05-02T14:48:28.077Z,20.70
2019-05-02T14:51:01.804Z,24.67
2019-05-02T14:53:32.018Z,20.73
2019-05-02T14:56:15.963Z,23.03
2019-05-02T14:58:52.624Z,22.17
2019-05-02T15:01:28.174Z,21.57
2019-05-02T15:04:07.974Z,22.33
2019-05-02T15:06:47.428Z,20.83
2019-05-02T15:09:26.579Z,21.77
2019-05-02T15:12:02.912Z,22.93
2019-05-02T15:14:33.809Z,22.47
2019-05-02T15:17:12.138Z,21.10
2019-05-02T15:22:56.148Z,23.00
2019-05-02T15:25:25.894Z,23.40
2019-05-02T15:28:02.912Z,26.00
2019-05-02T15:30:43.919Z,24.13
2019-05-02T15:33:12.540Z,23.67
2019-05-02T15:36:03.053Z,26.73
2019-05-02T15:38:45.538Z,24.60
2019-05-02T15:41:15.437Z,21.13
2019-05-02T15:43:49.761Z,21.33
2019-05-02T15:46:28.121Z,22.63
2019-05-02T15:48:57.209Z,27.40
2019-05-02T15:51:27.066Z,31.27
2019-05-02T15:54:06.070Z,30.23
2019-05-02T15:56:46.366Z,28.23
2019-05-02T15:59:18.729Z,28.60
2019-05-02T16:02:00.482Z,24.60
2019-05-02T16:04:41.771Z,21.20
2019-05-02T16:07:18.428Z,24.10
2019-05-02T16:09:59.251Z,22.20
2019-05-02T16:12:27.234Z,21.30
2019-05-02T16:14:58.743Z,21.27
2019-05-02T16:17:38.640Z,24.07
2019-05-02T16:20:11.291Z,22.10
2019-05-02T16:22:46.255Z,20.87
2019-05-02T16:25:15.190Z,20.27
2019-05-02T16:27:48.297Z,20.23
2019-05-02T16:30:44.126Z,22.37
2019-05-02T16:33:17.424Z,20.23
2019-05-02T16:38:38.534Z,23.60
2019-05-02T16:41:18.172Z,22.07
2019-05-02T16:43:53.234Z,22.07
2019-05-02T16:46:23.194Z,20.53
2019-05-02T16:48:55.576Z,20.53
2019-05-02T16:51:34.641Z,22.97
2019-05-02T16:54:06.122Z,26.13
2019-05-02T16:56:37.031Z,24.27
2019-05-02T16:59:08.658Z,19.47
2019-05-02T17:01:38.853Z,16.13
2019-05-02T17:04:09.658Z,12.70
2019-05-02T17:06:42.846Z,13.80
2019-05-02T17:09:21.719Z,10.70
2019-05-02T17:11:52.317Z,9.20
2019-05-02T17:14:22.544Z,9.33
2019-05-02T17:17:01.503Z,5.40
2019-05-02T17:19:31.393Z,7.87
2019-05-02T17:22:02.675Z,6.37
2019-05-02T17:24:33.270Z,7.70
2019-05-02T17:27:02.614Z,7.87
2019-05-02T17:29:34.882Z,5.73
2019-05-02T17:32:09.011Z,6.57
2019-05-02T17:34:38.240Z,5.97
2019-05-02T17:37:13.505Z,7.07
2019-05-02T17:39:46.792Z,6.57
2019-05-02T17:42:25.785Z,6.53
2019-05-02T17:45:03.681Z,8.90
2019-05-02T17:47:36.221Z,6.47
2019-05-02T17:50:19.727Z,7.37
2019-05-02T17:52:56.125Z,7.50
2019-05-02T17:55:32.832Z,8.30
2019-05-02T17:58:12.280Z,6.80
2019-05-02T18:00:43.116Z,8.73
2019-05-02T18:03:24.283Z,9.50
2019-05-02T18:05:48.686Z,8.30
2019-05-02T18:08:19.044Z,8.63
2019-05-02T18:10:50.650Z,10.40
2019-05-02T18:13:22.999Z,13.20
2019-05-02T18:15:53.513Z,12.47
2019-05-02T18:18:22.604Z,11.57
2019-05-02T18:20:53.708Z,10.37
2019-05-02T18:23:27.506Z,10.13
2019-05-02T18:25:57.400Z,9.60
2019-05-02T18:28:29.484Z,10.67
2019-05-02T18:31:05.830Z,10.87
2019-05-02T18:33:35.968Z,11.70
2019-05-02T18:36:05.151Z,10.63
2019-05-02T18:38:34.310Z,12.47
2019-05-02T18:41:07.789Z,11.10
2019-05-02T18:43:45.101Z,12.03
2019-05-02T18:46:16.184Z,11.47
2019-05-02T18:48:51.741Z,13.07
2019-05-02T18:51:23.908Z,12.67
2019-05-02T18:54:12.005Z,12.97
2019-05-02T18:59:47.406Z,11.70
2019-05-02T19:02:34.080Z,11.80
2019-05-02T19:04:58.587Z,12.90
2019-05-02T19:07:35.753Z,11.53
2019-05-02T19:10:07.442Z,12.00
2019-05-02T19:12:36.962Z,10.80
2019-05-02T19:15:11.854Z,12.07
2019-05-02T19:17:44.116Z,12.33
2019-05-02T19:20:25.804Z,11.43
2019-05-02T19:22:56.939Z,11.23
2019-05-02T19:25:35.030Z,14.57
2019-05-02T19:28:29.123Z,12.33
2019-05-02T19:31:06.428Z,11.97
2019-05-02T19:33:42.526Z,13.57
2019-05-02T19:36:24.397Z,12.43
2019-05-02T19:39:07.846Z,11.50
2019-05-02T19:41:32.051Z,10.63
2019-05-02T19:44:15.063Z,12.57
2019-05-02T19:46:46.184Z,11.00
2019-05-02T19:49:27.283Z,12.83
2019-05-02T19:52:12.795Z,11.80
2019-05-02T19:54:39.336Z,11.50
2019-05-02T19:57:04.774Z,13.57
2019-05-02T19:59:33.762Z,12.47
2019-05-02T20:02:06.016Z,11.97
2019-05-02T20:04:37.677Z,13.53
2019-05-02T20:07:08.277Z,12.97
2019-05-02T20:09:43.729Z,12.27
2019-05-02T20:12:18.242Z,14.87
2019-05-02T20:14:47.723Z,13.33
2019-05-02T20:17:22.149Z,15.97
2019-05-02T20:19:57.597Z,15.13
2019-05-02T20:22:24.891Z,15.73
2019-05-02T20:25:00.098Z,16.03
2019-05-02T20:27:38.326Z,18.13
2019-05-02T20:30:11.888Z,18.90
2019-05-02T20:32:45.025Z,17.10
2019-05-02T20:35:16.361Z,17.93
2019-05-02T20:37:46.676Z,20.17
2019-05-02T20:40:31.863Z,20.93
2019-05-02T20:43:03.006Z,22.57
2019-05-02T20:45:34.552Z,20.70
2019-05-02T20:48:04.988Z,22.33
2019-05-02T20:50:43.504Z,22.13
2019-05-02T20:53:14.828Z,23.57
2019-05-02T20:55:45.775Z,24.23
2019-05-02T20:58:19.450Z,24.43
2019-05-02T21:03:32.507Z,24.40
2019-05-02T21:06:05.028Z,23.97
2019-05-02T21:08:47.574Z,22.40
2019-05-02T21:11:17.958Z,23.20
2019-05-02T21:13:47.177Z,24.90
2019-05-02T21:16:16.338Z,24.87
2019-05-02T21:18:45.196Z,24.97
2019-05-02T21:22:12.055Z,26.10
2019-05-02T21:24:42.057Z,28.27
2019-05-02T21:27:15.361Z,28.17
2019-05-02T21:29:52.241Z,28.77
2019-05-02T21:32:22.902Z,26.43
2019-05-02T21:34:52.138Z,27.93
2019-05-02T21:37:28.801Z,27.83
2019-05-02T21:39:57.744Z,27.97
2019-05-02T21:42:27.148Z,29.23
2019-05-02T21:44:56.342Z,33.53
2019-05-02T21:47:25.675Z,31.17
2019-05-02T21:49:58.352Z,31.80
2019-05-02T21:52:32.510Z,32.23
2019-05-02T21:55:25.498Z,34.17
2019-05-02T21:57:54.974Z,33.47
2019-05-02T22:00:46.366Z,37.30
2019-05-02T22:03:24.839Z,31.87
2019-05-02T22:05:50.850Z,35.23
2019-05-02T22:08:21.689Z,33.17
2019-05-02T22:10:52.093Z,35.23
2019-05-02T22:13:22.618Z,38.77
2019-05-02T22:15:52.239Z,37.47
2019-05-02T22:18:24.491Z,34.60
2019-05-02T22:20:54.776Z,32.13
2019-05-02T22:23:24.170Z,34.87
2019-05-02T22:25:54.774Z,26.00
2019-05-02T22:28:32.672Z,23.33
2019-05-02T22:31:05.772Z,22.40
2019-05-02T22:33:39.260Z,22.10
2019-05-02T22:36:08.288Z,19.73
2019-05-02T22:38:38.876Z,20.13
2019-05-02T22:41:08.150Z,18.63
2019-05-02T22:43:42.164Z,13.97
2019-05-02T22:46:14.021Z,12.83
2019-05-02T22:48:45.371Z,12.60
2019-05-02T22:51:17.868Z,10.93
2019-05-02T22:53:46.613Z,12.70
2019-05-02T22:56:15.621Z,11.80
2019-05-02T22:58:47.147Z,13.27
2019-05-02T23:01:15.985Z,9.23
2019-05-02T23:03:45.179Z,13.27
2019-05-02T23:06:14.393Z,12.30
2019-05-02T23:08:46.249Z,13.13
2019-05-02T23:11:15.391Z,13.30
2019-05-02T23:13:46.772Z,11.43
2019-05-02T23:16:17.376Z,12.53
2019-05-02T23:18:46.550Z,10.40
2019-05-02T23:21:18.010Z,15.13
2019-05-02T23:23:46.860Z,13.77
2019-05-02T23:26:35.413Z,14.10
2019-05-02T23:29:05.789Z,13.03
2019-05-02T23:31:35.501Z,14.57
2019-05-02T23:34:34.685Z,15.00
2019-05-02T23:37:03.803Z,14.27
2019-05-02T23:39:35.681Z,13.57
2019-05-02T23:42:04.533Z,14.83
2019-05-02T23:44:33.528Z,18.67
2019-05-02T23:47:02.789Z,16.00
2019-05-02T23:49:32.472Z,16.17
2019-05-02T23:52:02.889Z,15.60
2019-05-02T23:54:32.424Z,17.37
2019-05-02T23:57:06.099Z,20.73
2019-05-02T23:59:32.541Z,19.57
